createdAt,value
2019-02-19T00:02:06.288Z,7.30
2019-02-19T00:04:31.523Z,7.30
2019-02-19T00:06:56.819Z,7.30
2019-02-19T00:09:24.720Z,7.20
2019-02-19T00:11:49.940Z,7.20
2019-02-19T00:14:17.284Z,7.20
2019-02-19T00:16:42.512Z,7.10
2019-02-19T00:19:07.730Z,7.20
2019-02-19T00:21:33.125Z,7.10
2019-02-19T00:23:58.415Z,7.10
2019-02-19T00:26:23.633Z,7.10
2019-02-19T00:28:48.820Z,7.10
2019-02-19T00:31:17.850Z,7.00
2019-02-19T00:33:44.676Z,7.00
2019-02-19T00:36:12.932Z,7.00
2019-02-19T00:38:38.298Z,6.90
2019-02-19T00:41:04.639Z,6.90
2019-02-19T00:43:31.949Z,6.90
2019-02-19T00:45:57.251Z,6.80
2019-02-19T00:48:22.532Z,6.80
2019-02-19T00:50:47.869Z,6.80
2019-02-19T00:53:13.279Z,6.80
2019-02-19T00:55:38.573Z,6.80
2019-02-19T00:58:03.746Z,6.80
2019-02-19T01:00:29.364Z,6.80
2019-02-19T01:02:54.660Z,6.70
2019-02-19T01:05:20.080Z,6.80
2019-02-19T01:07:45.618Z,6.70
2019-02-19T01:10:10.923Z,6.70
2019-02-19T01:12:36.551Z,6.70
2019-02-19T01:15:01.984Z,6.70
2019-02-19T01:17:27.924Z,6.70
2019-02-19T01:19:53.146Z,6.70
2019-02-19T01:22:19.267Z,6.70
2019-02-19T01:24:45.687Z,6.70
2019-02-19T01:27:11.588Z,6.70
2019-02-19T01:29:36.956Z,6.70
2019-02-19T01:32:03.149Z,6.70
2019-02-19T01:34:28.701Z,6.70
2019-02-19T01:36:54.277Z,6.70
2019-02-19T01:39:19.468Z,6.70
2019-02-19T01:41:44.693Z,6.70
2019-02-19T01:44:09.888Z,6.70
2019-02-19T01:46:35.152Z,6.70
2019-02-19T01:49:00.424Z,6.70
2019-02-19T01:51:25.751Z,6.70
2019-02-19T01:53:50.950Z,6.70
2019-02-19T01:56:16.140Z,6.60
2019-02-19T01:58:41.408Z,6.70
2019-02-19T02:01:06.577Z,6.60
2019-02-19T02:03:31.785Z,6.50
2019-02-19T02:05:57.060Z,6.50
2019-02-19T02:08:22.577Z,6.50
2019-02-19T02:10:47.753Z,6.50
2019-02-19T02:13:12.970Z,6.50
2019-02-19T02:15:42.661Z,6.50
2019-02-19T02:18:05.250Z,6.40
2019-02-19T02:20:30.850Z,6.40
2019-02-19T02:22:56.092Z,6.40
2019-02-19T02:25:21.496Z,6.40
2019-02-19T02:27:46.716Z,6.30
2019-02-19T02:30:11.952Z,6.30
2019-02-19T02:32:37.222Z,6.30
2019-02-19T02:35:03.546Z,6.40
2019-02-19T02:37:29.014Z,6.30
2019-02-19T02:39:54.328Z,6.20
2019-02-19T02:42:19.531Z,6.20
2019-02-19T02:44:44.712Z,6.20
2019-02-19T02:47:09.907Z,6.20
2019-02-19T02:49:35.130Z,6.20
2019-02-19T02:52:00.311Z,6.20
2019-02-19T02:54:25.661Z,6.30
2019-02-19T02:56:50.861Z,6.40
2019-02-19T02:59:16.053Z,6.40
2019-02-19T03:01:41.279Z,6.50
2019-02-19T03:04:06.472Z,6.50
2019-02-19T03:06:33.620Z,6.50
2019-02-19T03:08:58.983Z,6.50
2019-02-19T03:11:24.314Z,6.50
2019-02-19T03:13:49.641Z,6.50
2019-02-19T03:16:14.914Z,6.50
2019-02-19T03:18:40.074Z,6.60
2019-02-19T03:21:05.281Z,6.50
2019-02-19T03:23:30.695Z,6.50
2019-02-19T03:25:55.981Z,6.50
2019-02-19T03:28:21.315Z,6.60
2019-02-19T03:30:46.563Z,6.60
2019-02-19T03:33:11.762Z,6.60
2019-02-19T03:35:37.937Z,6.60
2019-02-19T03:38:03.180Z,6.60
2019-02-19T03:40:28.340Z,6.60
2019-02-19T03:42:53.506Z,6.60
2019-02-19T03:45:18.672Z,6.60
2019-02-19T03:47:43.973Z,6.50
2019-02-19T03:50:09.186Z,6.50
2019-02-19T03:52:34.537Z,6.50
2019-02-19T03:54:59.836Z,6.50
2019-02-19T03:57:25.303Z,6.40
2019-02-19T03:59:50.473Z,6.50
2019-02-19T04:02:15.707Z,6.50
2019-02-19T04:04:40.926Z,6.60
2019-02-19T04:07:06.077Z,6.50
2019-02-19T04:09:31.226Z,6.60
2019-02-19T04:11:56.696Z,6.60
2019-02-19T04:14:21.886Z,6.60
2019-02-19T04:16:48.929Z,6.60
2019-02-19T04:19:14.156Z,6.60
2019-02-19T04:21:39.465Z,6.60
2019-02-19T04:24:04.647Z,6.60
2019-02-19T04:26:30.301Z,6.60
2019-02-19T04:28:55.465Z,6.60
2019-02-19T04:31:21.310Z,6.60
2019-02-19T04:33:46.588Z,6.60
2019-02-19T04:36:11.743Z,6.60
2019-02-19T04:38:36.916Z,6.70
2019-02-19T04:41:02.219Z,6.70
2019-02-19T04:43:27.441Z,6.60
2019-02-19T04:45:52.676Z,6.60
2019-02-19T04:48:17.934Z,6.50
2019-02-19T04:50:43.084Z,6.40
2019-02-19T04:53:08.234Z,6.40
2019-02-19T04:55:33.412Z,6.30
2019-02-19T04:57:58.636Z,6.30
2019-02-19T05:00:24.048Z,6.30
2019-02-19T05:02:51.493Z,6.20
2019-02-19T05:05:16.395Z,6.10
2019-02-19T05:07:41.665Z,6.10
2019-02-19T05:10:07.292Z,6.10
2019-02-19T05:12:33.704Z,6.10
2019-02-19T05:15:00.012Z,6.10
2019-02-19T05:17:25.429Z,6.10
2019-02-19T05:19:50.650Z,6.10
2019-02-19T05:22:16.068Z,6.10
2019-02-19T05:24:41.568Z,6.10
2019-02-19T05:27:06.731Z,6.00
2019-02-19T05:29:31.923Z,6.00
2019-02-19T05:31:57.140Z,6.00
2019-02-19T05:34:22.564Z,6.00
2019-02-19T05:36:48.261Z,6.00
2019-02-19T05:39:13.694Z,6.00
2019-02-19T05:41:39.998Z,5.90
2019-02-19T05:44:05.282Z,6.00
2019-02-19T05:46:30.576Z,6.00
2019-02-19T05:48:55.761Z,6.00
2019-02-19T05:51:20.922Z,6.00
2019-02-19T05:53:46.081Z,6.00
2019-02-19T05:56:11.284Z,6.00
2019-02-19T05:58:36.598Z,6.00
2019-02-19T06:01:02.836Z,6.00
2019-02-19T06:03:29.581Z,6.00
2019-02-19T06:05:55.215Z,6.00
2019-02-19T06:08:20.515Z,6.00
2019-02-19T06:10:45.933Z,6.00
2019-02-19T06:13:11.326Z,6.00
2019-02-19T06:15:36.529Z,6.10
2019-02-19T06:18:02.072Z,6.10
2019-02-19T06:20:27.334Z,6.00
2019-02-19T06:22:52.550Z,6.10
2019-02-19T06:25:17.839Z,6.00
2019-02-19T06:27:43.254Z,6.00
2019-02-19T06:30:11.018Z,6.00
2019-02-19T06:32:41.298Z,6.00
2019-02-19T06:35:07.804Z,6.00
2019-02-19T06:37:33.436Z,6.10
2019-02-19T06:40:00.940Z,6.10
2019-02-19T06:42:35.189Z,6.10
2019-02-19T06:45:00.476Z,6.10
2019-02-19T06:47:27.695Z,6.20
2019-02-19T06:49:52.900Z,6.20
2019-02-19T06:52:18.099Z,6.20
2019-02-19T06:54:53.815Z,6.20
2019-02-19T06:57:22.416Z,6.20
2019-02-19T06:59:50.268Z,6.20
2019-02-19T07:02:17.979Z,6.20
2019-02-19T07:04:50.353Z,6.20
2019-02-19T07:07:15.497Z,6.30
2019-02-19T07:09:40.981Z,6.30
2019-02-19T07:12:06.155Z,6.30
2019-02-19T07:14:32.322Z,6.30
2019-02-19T07:16:58.661Z,6.40
2019-02-19T07:19:23.880Z,6.40
2019-02-19T07:21:49.035Z,6.50
2019-02-19T07:24:14.203Z,6.50
2019-02-19T07:26:39.715Z,6.50
2019-02-19T07:29:05.237Z,6.50
2019-02-19T07:31:30.441Z,6.50
2019-02-19T07:33:55.627Z,6.50
2019-02-19T07:36:20.828Z,6.60
2019-02-19T07:38:45.958Z,6.60
2019-02-19T07:41:11.151Z,6.60
2019-02-19T07:43:36.429Z,6.60
2019-02-19T07:46:01.590Z,6.70
2019-02-19T07:48:26.771Z,6.80
2019-02-19T07:50:51.983Z,6.80
2019-02-19T07:53:17.192Z,6.90
2019-02-19T07:55:42.392Z,7.00
2019-02-19T07:58:07.808Z,7.00
2019-02-19T08:00:33.086Z,7.10
2019-02-19T08:02:58.255Z,7.20
2019-02-19T08:05:23.735Z,7.20
2019-02-19T08:07:49.018Z,7.20
2019-02-19T08:10:14.304Z,7.30
2019-02-19T08:12:39.708Z,7.20
2019-02-19T08:15:09.801Z,7.30
2019-02-19T08:17:35.188Z,7.20
2019-02-19T08:20:00.593Z,7.40
2019-02-19T08:22:25.764Z,7.50
2019-02-19T08:24:50.946Z,7.60
2019-02-19T08:27:16.228Z,7.60
2019-02-19T08:29:41.420Z,7.80
2019-02-19T08:32:06.647Z,7.80
2019-02-19T08:34:31.968Z,7.90
2019-02-19T08:36:57.157Z,7.90
2019-02-19T08:39:22.332Z,7.90
2019-02-19T08:41:47.630Z,8.00
2019-02-19T08:44:12.793Z,8.10
2019-02-19T08:46:37.979Z,8.00
2019-02-19T08:49:03.463Z,8.00
2019-02-19T08:51:28.732Z,8.00
2019-02-19T08:53:54.021Z,7.90
2019-02-19T08:56:19.208Z,7.90
2019-02-19T08:58:44.414Z,8.00
2019-02-19T09:01:09.720Z,8.10
2019-02-19T09:03:34.931Z,8.00
2019-02-19T09:06:00.121Z,7.90
2019-02-19T09:08:25.477Z,8.00
2019-02-19T09:10:50.632Z,8.00
2019-02-19T09:13:15.811Z,8.00
2019-02-19T09:15:42.318Z,8.10
2019-02-19T09:18:07.913Z,8.10
2019-02-19T09:20:33.424Z,8.10
2019-02-19T09:23:02.719Z,8.10
2019-02-19T09:25:27.944Z,8.10
2019-02-19T09:27:53.129Z,8.10
2019-02-19T09:30:18.410Z,8.10
2019-02-19T09:32:43.703Z,8.30
2019-02-19T09:35:08.872Z,8.60
2019-02-19T09:37:34.297Z,8.80
2019-02-19T09:39:59.516Z,8.80
2019-02-19T09:42:24.810Z,8.80
2019-02-19T09:44:49.994Z,8.80
2019-02-19T09:47:15.245Z,8.90
2019-02-19T09:49:40.727Z,9.10
2019-02-19T09:52:05.907Z,9.40
2019-02-19T09:54:31.239Z,9.30
2019-02-19T09:56:57.003Z,9.30
2019-02-19T09:59:24.114Z,9.30
2019-02-19T10:01:49.507Z,9.30
2019-02-19T10:04:14.689Z,9.20
2019-02-19T10:06:39.948Z,9.10
2019-02-19T10:09:05.346Z,9.10
2019-02-19T10:11:31.857Z,9.20
2019-02-19T10:13:57.040Z,9.10
2019-02-19T10:16:22.253Z,9.00
2019-02-19T10:18:47.618Z,9.00
2019-02-19T10:21:12.821Z,8.90
2019-02-19T10:23:38.343Z,8.90
2019-02-19T10:26:03.517Z,9.20
2019-02-19T10:28:28.671Z,9.50
2019-02-19T10:30:53.966Z,9.70
2019-02-19T10:33:19.132Z,10.00
2019-02-19T10:35:44.283Z,10.20
2019-02-19T10:38:09.481Z,10.30
2019-02-19T10:40:34.651Z,10.30
2019-02-19T10:43:00.273Z,10.20
2019-02-19T10:45:25.846Z,10.50
2019-02-19T10:47:51.475Z,10.20
2019-02-19T10:50:16.798Z,10.20
2019-02-19T10:52:42.005Z,10.20
2019-02-19T10:55:08.550Z,10.20
2019-02-19T10:57:33.739Z,9.90
2019-02-19T10:59:59.247Z,9.70
2019-02-19T11:02:24.424Z,9.80
2019-02-19T11:04:49.597Z,9.80
2019-02-19T11:07:14.772Z,9.90
2019-02-19T11:09:39.936Z,10.00
2019-02-19T11:12:05.367Z,10.00
2019-02-19T11:14:30.583Z,10.20
2019-02-19T11:16:55.784Z,10.20
2019-02-19T11:19:21.085Z,10.40
2019-02-19T11:21:46.314Z,10.40
2019-02-19T11:24:11.577Z,10.50
2019-02-19T11:26:36.812Z,10.40
2019-02-19T11:29:01.988Z,10.30
2019-02-19T11:31:27.201Z,10.10
2019-02-19T11:33:52.432Z,10.10
2019-02-19T11:36:17.644Z,10.10
2019-02-19T11:38:42.964Z,10.20
2019-02-19T11:41:08.262Z,10.30
2019-02-19T11:43:33.499Z,10.20
2019-02-19T11:45:58.819Z,10.20
2019-02-19T11:48:24.029Z,10.20
2019-02-19T11:50:49.216Z,10.10
2019-02-19T11:53:14.401Z,10.10
2019-02-19T11:55:39.770Z,10.10
2019-02-19T11:58:04.954Z,9.90
2019-02-19T12:00:34.857Z,9.70
2019-02-19T12:03:00.040Z,9.60
2019-02-19T12:05:25.234Z,9.40
2019-02-19T12:07:51.403Z,9.30
2019-02-19T12:10:16.617Z,9.20
2019-02-19T12:12:41.811Z,9.00
2019-02-19T12:15:11.936Z,9.00
2019-02-19T12:17:37.093Z,8.90
2019-02-19T12:20:04.314Z,9.00
2019-02-19T12:22:30.658Z,9.10
2019-02-19T12:24:55.861Z,9.10
2019-02-19T12:27:21.075Z,9.10
2019-02-19T12:29:46.266Z,9.20
2019-02-19T12:32:11.533Z,9.10
2019-02-19T12:34:36.768Z,9.20
2019-02-19T12:37:01.991Z,9.20
2019-02-19T12:39:27.288Z,9.10
2019-02-19T12:41:52.579Z,9.20
2019-02-19T12:44:17.952Z,9.30
2019-02-19T12:46:43.153Z,9.30
2019-02-19T12:49:08.426Z,9.20
2019-02-19T12:51:33.601Z,9.10
2019-02-19T12:53:59.879Z,9.10
2019-02-19T12:56:25.206Z,9.10
2019-02-19T12:58:50.388Z,9.00
2019-02-19T13:01:16.125Z,8.90
2019-02-19T13:03:41.468Z,8.90
2019-02-19T13:06:06.719Z,8.80
2019-02-19T13:08:32.053Z,8.60
2019-02-19T13:10:57.263Z,8.60
2019-02-19T13:13:22.597Z,8.60
2019-02-19T13:15:47.833Z,8.50
2019-02-19T13:18:13.007Z,8.40
2019-02-19T13:20:38.211Z,8.20
2019-02-19T13:23:03.488Z,8.10
2019-02-19T13:25:28.746Z,7.90
2019-02-19T13:27:53.913Z,7.90
2019-02-19T13:30:20.530Z,7.80
2019-02-19T13:32:54.679Z,7.80
2019-02-19T13:35:19.968Z,7.70
2019-02-19T13:37:45.183Z,7.70
2019-02-19T13:40:15.586Z,7.80
2019-02-19T13:42:40.751Z,7.80
2019-02-19T13:45:08.849Z,7.70
2019-02-19T13:47:34.007Z,7.60
2019-02-19T13:49:59.189Z,7.50
2019-02-19T13:52:26.321Z,7.40
2019-02-19T13:54:51.488Z,7.30
2019-02-19T13:57:16.671Z,7.40
2019-02-19T13:59:42.017Z,7.40
2019-02-19T14:02:07.152Z,7.40
2019-02-19T14:04:32.405Z,7.40
2019-02-19T14:06:58.600Z,7.50
2019-02-19T14:09:23.901Z,7.50
2019-02-19T14:11:49.071Z,7.50
2019-02-19T14:14:16.393Z,7.60
2019-02-19T14:16:43.436Z,7.60
2019-02-19T14:19:09.808Z,7.60
2019-02-19T14:21:53.657Z,7.50
2019-02-19T14:24:24.576Z,7.50
2019-02-19T14:27:08.219Z,7.50
2019-02-19T14:29:38.124Z,7.40
2019-02-19T14:32:14.039Z,7.30
2019-02-19T14:34:58.842Z,7.20
2019-02-19T14:37:28.703Z,7.20
2019-02-19T14:40:17.164Z,7.20
2019-02-19T14:42:44.399Z,7.10
2019-02-19T14:45:17.499Z,7.10
2019-02-19T14:47:47.180Z,7.10
2019-02-19T14:50:23.959Z,7.10
2019-02-19T14:52:54.148Z,7.20
2019-02-19T14:55:24.179Z,7.10
2019-02-19T14:58:09.276Z,7.10
2019-02-19T15:00:43.183Z,7.10
2019-02-19T15:03:19.693Z,7.10
2019-02-19T15:06:03.182Z,7.10
2019-02-19T15:08:44.059Z,7.10
2019-02-19T15:11:20.051Z,7.10
2019-02-19T15:13:52.710Z,7.00
2019-02-19T15:16:45.616Z,7.00
2019-02-19T15:19:23.883Z,6.90
2019-02-19T15:21:51.042Z,6.80
2019-02-19T15:24:23.921Z,6.80
2019-02-19T15:27:09.166Z,6.80
2019-02-19T15:29:42.219Z,6.80
2019-02-19T15:32:09.833Z,6.80
2019-02-19T15:34:36.970Z,6.70
2019-02-19T15:37:16.189Z,6.70
2019-02-19T15:39:45.999Z,6.70
2019-02-19T15:42:29.909Z,6.80
2019-02-19T15:44:57.139Z,6.80
2019-02-19T15:47:39.357Z,6.90
2019-02-19T15:50:23.425Z,7.00
2019-02-19T15:52:56.371Z,7.00
2019-02-19T15:55:23.663Z,7.10
2019-02-19T15:57:50.838Z,7.00
2019-02-19T16:00:21.054Z,7.00
2019-02-19T16:02:49.993Z,6.90
2019-02-19T16:05:31.897Z,6.90
2019-02-19T16:07:59.142Z,6.90
2019-02-19T16:10:26.646Z,6.80
2019-02-19T16:12:59.941Z,6.80
2019-02-19T16:15:45.717Z,6.80
2019-02-19T16:18:14.714Z,6.80
2019-02-19T16:20:44.324Z,6.80
2019-02-19T16:23:28.661Z,6.80
2019-02-19T16:26:04.508Z,6.80
2019-02-19T16:28:40.411Z,6.80
2019-02-19T16:31:07.795Z,6.80
2019-02-19T16:33:47.225Z,6.80
2019-02-19T16:36:29.572Z,6.80
2019-02-19T16:39:02.857Z,6.80
2019-02-19T16:41:32.768Z,6.80
2019-02-19T16:44:18.007Z,6.80
2019-02-19T16:46:51.216Z,6.70
2019-02-19T16:49:18.367Z,6.70
2019-02-19T16:51:50.996Z,6.70
2019-02-19T16:54:20.789Z,6.80
2019-02-19T16:56:53.716Z,6.70
2019-02-19T16:59:35.658Z,6.80
2019-02-19T17:02:05.694Z,6.80
2019-02-19T17:04:50.711Z,6.80
2019-02-19T17:07:29.422Z,6.80
2019-02-19T17:09:57.704Z,6.80
2019-02-19T17:12:35.016Z,6.80
2019-02-19T17:15:07.948Z,6.80
2019-02-19T17:17:35.120Z,6.80
2019-02-19T17:20:05.299Z,6.70
2019-02-19T17:22:47.688Z,6.70
2019-02-19T17:25:29.946Z,6.80
2019-02-19T17:27:57.241Z,6.70
2019-02-19T17:30:27.641Z,6.70
2019-02-19T17:32:54.736Z,6.80
2019-02-19T17:35:38.346Z,6.80
2019-02-19T17:38:14.452Z,6.80
2019-02-19T17:40:35.719Z,6.80
2019-02-19T17:43:02.993Z,6.80
2019-02-19T17:45:33.432Z,6.80
2019-02-19T17:48:03.741Z,6.80
2019-02-19T17:50:38.372Z,6.80
2019-02-19T17:53:07.647Z,6.80
2019-02-19T17:55:50.204Z,6.70
2019-02-19T17:58:25.981Z,6.70
2019-02-19T18:00:59.098Z,6.70
2019-02-19T18:03:32.470Z,6.70
2019-02-19T18:06:05.480Z,6.70
2019-02-19T18:08:35.316Z,6.70
2019-02-19T18:11:17.234Z,6.70
2019-02-19T18:13:44.453Z,6.70
2019-02-19T18:16:17.405Z,6.70
2019-02-19T18:18:44.473Z,6.70
2019-02-19T18:21:09.651Z,6.70
2019-02-19T18:23:34.889Z,6.60
2019-02-19T18:26:00.311Z,6.60
2019-02-19T18:28:25.513Z,6.60
2019-02-19T18:30:52.906Z,6.60
2019-02-19T18:33:18.661Z,6.60
2019-02-19T18:35:43.962Z,6.60
2019-02-19T18:38:09.147Z,6.80
2019-02-19T18:40:34.418Z,6.70
2019-02-19T18:42:59.647Z,6.60
2019-02-19T18:45:25.099Z,6.60
2019-02-19T18:47:50.308Z,6.60
2019-02-19T18:50:15.575Z,6.60
2019-02-19T18:52:40.971Z,6.60
2019-02-19T18:55:07.166Z,6.60
2019-02-19T18:57:35.057Z,6.60
2019-02-19T19:00:00.713Z,6.60
2019-02-19T19:02:26.672Z,6.60
2019-02-19T19:04:58.561Z,6.50
2019-02-19T19:07:39.461Z,6.50
2019-02-19T19:10:10.020Z,6.50
2019-02-19T19:12:35.359Z,6.50
2019-02-19T19:15:00.549Z,6.60
2019-02-19T19:17:25.849Z,6.50
2019-02-19T19:19:51.142Z,6.50
2019-02-19T19:22:18.526Z,6.60
2019-02-19T19:24:43.751Z,6.60
2019-02-19T19:27:09.301Z,6.60
2019-02-19T19:29:34.670Z,6.60
2019-02-19T19:32:00.941Z,6.60
2019-02-19T19:34:26.534Z,6.60
2019-02-19T19:36:51.816Z,6.60
2019-02-19T19:39:17.290Z,6.60
2019-02-19T19:41:42.902Z,6.60
2019-02-19T19:44:08.313Z,6.60
2019-02-19T19:46:33.981Z,6.60
2019-02-19T19:48:59.338Z,6.60
2019-02-19T19:51:24.568Z,6.60
2019-02-19T19:53:50.015Z,6.60
2019-02-19T19:56:18.647Z,6.60
2019-02-19T19:58:43.960Z,6.60
2019-02-19T20:01:09.308Z,6.60
2019-02-19T20:03:34.788Z,6.60
2019-02-19T20:06:00.400Z,6.50
2019-02-19T20:08:25.665Z,6.50
2019-02-19T20:10:51.321Z,6.50
2019-02-19T20:13:16.537Z,6.60
2019-02-19T20:15:41.931Z,6.60
2019-02-19T20:18:07.231Z,6.60
2019-02-19T20:20:32.431Z,6.60
2019-02-19T20:22:57.666Z,6.60
2019-02-19T20:25:22.935Z,6.60
2019-02-19T20:27:49.168Z,6.60
2019-02-19T20:30:15.259Z,6.60
2019-02-19T20:32:42.486Z,6.50
2019-02-19T20:35:11.416Z,6.60
2019-02-19T20:37:37.287Z,6.60
2019-02-19T20:40:04.627Z,6.60
2019-02-19T20:42:30.074Z,6.60
2019-02-19T20:44:55.469Z,6.60
2019-02-19T20:47:23.915Z,6.60
2019-02-19T20:49:49.086Z,6.60
2019-02-19T20:52:14.259Z,6.60
2019-02-19T20:54:39.520Z,6.60
2019-02-19T20:57:05.074Z,6.60
2019-02-19T20:59:30.510Z,6.60
2019-02-19T21:01:55.988Z,6.60
2019-02-19T21:04:21.483Z,6.60
2019-02-19T21:06:46.971Z,6.60
2019-02-19T21:09:12.349Z,6.60
2019-02-19T21:11:37.640Z,6.50
2019-02-19T21:14:03.255Z,6.50
2019-02-19T21:16:28.861Z,6.50
2019-02-19T21:18:57.706Z,6.50
2019-02-19T21:21:24.380Z,6.50
2019-02-19T21:23:50.473Z,6.50
2019-02-19T21:26:17.032Z,6.50
2019-02-19T21:28:42.927Z,6.50
2019-02-19T21:31:11.161Z,6.60
2019-02-19T21:33:37.560Z,6.50
2019-02-19T21:36:03.203Z,6.50
2019-02-19T21:38:28.686Z,6.50
2019-02-19T21:40:54.299Z,6.50
2019-02-19T21:43:19.949Z,6.50
2019-02-19T21:45:45.313Z,6.50
2019-02-19T21:48:10.654Z,6.50
2019-02-19T21:50:35.837Z,6.60
2019-02-19T21:53:01.103Z,6.50
2019-02-19T21:55:26.293Z,6.50
2019-02-19T21:57:51.545Z,6.50
2019-02-19T22:00:18.613Z,6.50
2019-02-19T22:02:45.907Z,6.50
2019-02-19T22:05:12.800Z,6.50
2019-02-19T22:07:38.658Z,6.50
2019-02-19T22:10:07.391Z,6.50
2019-02-19T22:12:33.170Z,6.50
2019-02-19T22:14:59.233Z,6.50
2019-02-19T22:17:24.755Z,6.50
2019-02-19T22:19:49.952Z,6.60
2019-02-19T22:22:15.169Z,6.60
2019-02-19T22:24:40.383Z,6.60
2019-02-19T22:27:05.647Z,6.60
2019-02-19T22:29:32.141Z,6.60
2019-02-19T22:31:57.540Z,6.60
2019-02-19T22:34:22.807Z,6.70
2019-02-19T22:36:48.186Z,6.70
2019-02-19T22:39:13.384Z,6.60
2019-02-19T22:41:38.628Z,6.60
2019-02-19T22:44:03.966Z,6.70
2019-02-19T22:46:29.546Z,6.70
2019-02-19T22:48:54.860Z,6.70
2019-02-19T22:51:20.192Z,6.70
2019-02-19T22:53:53.339Z,6.70
2019-02-19T22:56:29.629Z,6.70
2019-02-19T22:58:54.789Z,6.70
2019-02-19T23:01:28.238Z,6.70
2019-02-19T23:03:54.507Z,6.80
2019-02-19T23:06:19.844Z,6.80
2019-02-19T23:08:45.208Z,6.70
2019-02-19T23:11:10.419Z,6.70
2019-02-19T23:13:38.549Z,6.80
2019-02-19T23:16:04.012Z,6.80
2019-02-19T23:18:29.268Z,6.80
2019-02-19T23:20:54.534Z,6.80
2019-02-19T23:23:19.846Z,6.80
2019-02-19T23:25:45.135Z,6.80
2019-02-19T23:28:11.478Z,6.80
2019-02-19T23:30:36.870Z,6.80
2019-02-19T23:33:02.150Z,6.80
2019-02-19T23:35:47.132Z,6.80
2019-02-19T23:38:12.344Z,6.80
2019-02-19T23:40:37.559Z,6.80
2019-02-19T23:43:03.096Z,6.80
2019-02-19T23:45:28.279Z,6.70
2019-02-19T23:47:53.559Z,6.70
2019-02-19T23:50:18.781Z,6.70
2019-02-19T23:52:44.155Z,6.80
2019-02-19T23:55:12.296Z,6.80
2019-02-19T23:57:37.543Z,6.80
